Time,TemperatureF,DewpointF,PressureIn,WindDirection,WindDirectionDegrees,WindSpeedMPH,WindSpeedGustMPH,Humidity,HourlyPrecipIn,Conditions,Clouds,dailyrainin,SoftwareType,DateUTC
2013-01-24 00:20:00,51.0,-99.9,-100.00,NE,39,0.0,4.0,-999,-99.99,,,-99.99,,2013-01-24 06:20:00,
2013-01-24 00:53:00,51.0,-99.9,-100.00,SSE,163,2.0,4.0,-999,-99.99,,,-99.99,,2013-01-24 06:53:00,
2013-01-24 01:03:00,51.0,-99.9,-100.00,NE,39,0.0,4.0,-999,-99.99,,,-99.99,,2013-01-24 07:03:00,
2013-01-24 01:13:00,51.0,-99.9,-100.00,NE,39,0.0,4.0,-999,-99.99,,,-99.99,,2013-01-24 07:13:00,
2013-01-24 02:20:00,50.0,-99.9,-100.00,NNW,343,2.0,4.0,-999,-99.99,,,-99.99,,2013-01-24 08:20:00,
2013-01-24 03:03:00,50.0,-99.9,-100.00,NNW,343,2.0,4.0,-999,-99.99,,,-99.99,,2013-01-24 09:03:00,
2013-01-24 03:13:00,50.0,-99.9,-100.00,NNW,343,2.0,4.0,-999,-99.99,,,-99.99,,2013-01-24 09:13:00,
2013-01-24 06:20:00,51.0,-99.9,-100.00,NE,40,1.0,1.0,-999,-99.99,,,-99.99,,2013-01-24 12:20:00,
2013-01-24 07:03:00,51.0,-99.9,-100.00,NE,40,1.0,1.0,-999,-99.99,,,-99.99,,2013-01-24 13:03:00,
2013-01-24 07:13:00,51.0,-99.9,-100.00,NE,40,1.0,1.0,-999,-99.99,,,-99.99,,2013-01-24 13:13:00,
2013-01-24 09:33:00,51.0,-99.9,-100.00,ESE,115,2.0,4.0,-999,-99.99,,,-99.99,,2013-01-24 15:33:00,
2013-01-24 09:43:00,51.0,-99.9,-100.00,ESE,115,2.0,4.0,-999,-99.99,,,-99.99,,2013-01-24 15:43:00,
2013-01-24 11:20:00,67.0,-99.9,-100.00,SE,139,4.0,6.0,-999,-99.99,,,-99.99,,2013-01-24 17:20:00,
2013-01-24 11:33:00,63.0,-99.9,-100.00,SSE,161,2.0,5.0,-999,-99.99,,,-99.99,,2013-01-24 17:33:00,
2013-01-24 12:03:00,67.0,-99.9,-100.00,SE,139,4.0,6.0,-999,-99.99,,,-99.99,,2013-01-24 18:03:00,
2013-01-24 12:13:00,67.0,-99.9,-100.00,SE,139,4.0,6.0,-999,-99.99,,,-99.99,,2013-01-24 18:13:00,
2013-01-24 12:54:00,73.0,-99.9,-100.00,NW,313,10.0,15.0,-999,-99.99,,,-99.99,,2013-01-24 18:54:00,
2013-01-24 13:03:00,73.0,-99.9,-100.00,NW,313,10.0,15.0,-999,-99.99,,,-99.99,,2013-01-24 19:03:00,
2013-01-24 16:53:00,72.0,-99.9,-100.00,SW,235,7.0,15.0,-999,-99.99,,,-99.99,,2013-01-24 22:53:00,
2013-01-24 17:03:00,72.0,-99.9,-100.00,SW,235,7.0,15.0,-999,-99.99,,,-99.99,,2013-01-24 23:03:00,
2013-01-24 17:40:00,71.0,-99.9,-100.00,NNW,335,7.0,12.0,-999,-99.99,,,-99.99,,2013-01-24 23:40:00,
2013-01-24 18:22:00,71.0,-99.9,-100.00,NNW,335,7.0,12.0,-999,-99.99,,,-99.99,,2013-01-25 00:22:00,
2013-01-24 18:32:00,71.0,-99.9,-100.00,NNW,335,7.0,12.0,-999,-99.99,,,-99.99,,2013-01-25 00:32:00,
2013-01-24 20:03:00,57.0,-99.9,-100.00,North,357,3.0,4.0,-999,-99.99,,,-99.99,,2013-01-25 02:03:00,
2013-01-24 20:12:00,57.0,-99.9,-100.00,North,357,3.0,4.0,-999,-99.99,,,-99.99,,2013-01-25 02:12:00,
2013-01-24 20:20:00,51.0,-99.9,-100.00,North,5,1.0,5.0,-999,-99.99,,,-99.99,,2013-01-25 02:20:00,
2013-01-24 20:22:00,57.0,-99.9,-100.00,North,357,3.0,4.0,-999,-99.99,,,-99.99,,2013-01-25 02:22:00,
2013-01-24 21:02:00,51.0,-99.9,-100.00,North,5,1.0,5.0,-999,-99.99,,,-99.99,,2013-01-25 03:02:00,
2013-01-24 21:12:00,51.0,-99.9,-100.00,North,5,1.0,5.0,-999,-99.99,,,-99.99,,2013-01-25 03:12:00,
2013-01-24 21:53:00,55.0,-99.9,-100.00,NW,306,6.0,6.0,-999,-99.99,,,-99.99,,2013-01-25 03:53:00,
2013-01-24 22:02:00,55.0,-99.9,-100.00,NW,306,6.0,6.0,-999,-99.99,,,-99.99,,2013-01-25 04:02:00,